sensor_id;sensor_type;location;lat;lon;timestamp;pressure;altitude;pressure_sealevel;temperature;humidity
55032;BME280;40928;51.076;7.950;2023-12-28T00:01:25;96598.44;;;5.71;97.07
55032;BME280;40928;51.076;7.950;2023-12-28T00:03:51;96594.28;;;5.56;99.81
55032;BME280;40928;51.076;7.950;2023-12-28T00:06:17;96584.06;;;5.60;98.88
55032;BME280;40928;51.076;7.950;2023-12-28T00:08:43;96612.69;;;5.44;100.00
55032;BME280;40928;51.076;7.950;2023-12-28T00:11:09;96603.19;;;5.37;100.00
55032;BME280;40928;51.076;7.950;2023-12-28T00:13:34;96608.13;;;5.33;100.00
55032;BME280;40928;51.076;7.950;2023-12-28T00:16:00;96614.16;;;5.40;100.00
55032;BME280;40928;51.076;7.950;2023-12-28T00:18:26;96619.72;;;5.32;100.00
55032;BME280;40928;51.076;7.950;2023-12-28T00:20:52;96621.69;;;5.43;100.00
55032;BME280;40928;51.076;7.950;2023-12-28T00:23:18;96617.88;;;5.32;100.00
55032;BME280;40928;51.076;7.950;2023-12-28T00:25:46;96617.13;;;5.25;100.00
55032;BME280;40928;51.076;7.950;2023-12-28T00:28:12;96620.75;;;4.99;100.00
55032;BME280;40928;51.076;7.950;2023-12-28T00:30:38;96634.16;;;5.04;100.00
55032;BME280;40928;51.076;7.950;2023-12-28T00:33:04;96624.19;;;4.99;100.00
55032;BME280;40928;51.076;7.950;2023-12-28T00:35:32;96630.31;;;5.00;100.00
55032;BME280;40928;51.076;7.950;2023-12-28T00:37:58;96633.16;;;5.05;100.00
55032;BME280;40928;51.076;7.950;2023-12-28T00:40:24;96639.66;;;5.02;100.00
55032;BME280;40928;51.076;7.950;2023-12-28T00:42:51;96650.31;;;4.89;100.00
55032;BME280;40928;51.076;7.950;2023-12-28T00:45:17;96642.59;;;4.87;100.00
55032;BME280;40928;51.076;7.950;2023-12-28T00:47:42;96659.91;;;4.83;100.00
55032;BME280;40928;51.076;7.950;2023-12-28T00:50:09;96651.16;;;4.83;100.00
55032;BME280;40928;51.076;7.950;2023-12-28T00:52:41;96672.31;;;4.83;100.00
55032;BME280;40928;51.076;7.950;2023-12-28T00:55:07;96667.50;;;4.73;100.00
55032;BME280;40928;51.076;7.950;2023-12-28T00:57:35;96685.22;;;4.66;100.00
55032;BME280;40928;51.076;7.950;2023-12-28T01:00:01;96671.00;;;4.60;100.00
55032;BME280;40928;51.076;7.950;2023-12-28T01:02:28;96664.03;;;4.72;100.00
55032;BME280;40928;51.076;7.950;2023-12-28T01:04:53;96670.59;;;4.63;100.00
55032;BME280;40928;51.076;7.950;2023-12-28T01:07:20;96698.66;;;4.64;100.00
55032;BME280;40928;51.076;7.950;2023-12-28T01:09:46;96713.31;;;4.60;100.00
55032;BME280;40928;51.076;7.950;2023-12-28T01:12:11;96693.59;;;4.49;100.00
55032;BME280;40928;51.076;7.950;2023-12-28T01:14:37;96692.41;;;4.45;100.00
55032;BME280;40928;51.076;7.950;2023-12-28T01:17:03;96703.38;;;4.49;100.00
55032;BME280;40928;51.076;7.950;2023-12-28T01:19:30;96694.00;;;4.53;100.00
55032;BME280;40928;51.076;7.950;2023-12-28T01:21:56;96690.34;;;4.47;100.00
55032;BME280;40928;51.076;7.950;2023-12-28T01:24:22;96696.66;;;4.53;100.00
55032;BME280;40928;51.076;7.950;2023-12-28T01:26:47;96697.25;;;4.55;100.00
55032;BME280;40928;51.076;7.950;2023-12-28T01:29:13;96702.94;;;4.52;100.00
55032;BME280;40928;51.076;7.950;2023-12-28T01:31:39;96695.00;;;4.52;100.00
55032;BME280;40928;51.076;7.950;2023-12-28T01:34:05;96706.81;;;4.56;100.00
55032;BME280;40928;51.076;7.950;2023-12-28T01:36:32;96698.88;;;4.56;100.00
55032;BME280;40928;51.076;7.950;2023-12-28T01:38:59;96716.78;;;4.54;100.00
55032;BME280;40928;51.076;7.950;2023-12-28T01:41:24;96719.22;;;4.55;100.00
55032;BME280;40928;51.076;7.950;2023-12-28T01:43:51;96721.06;;;4.55;100.00
55032;BME280;40928;51.076;7.950;2023-12-28T01:46:18;96728.78;;;4.56;100.00
55032;BME280;40928;51.076;7.950;2023-12-28T01:48:49;96728.59;;;4.51;100.00
55032;BME280;40928;51.076;7.950;2023-12-28T01:51:15;96702.53;;;4.55;100.00
55032;BME280;40928;51.076;7.950;2023-12-28T01:53:47;96731.44;;;4.56;100.00
55032;BME280;40928;51.076;7.950;2023-12-28T01:56:14;96724.31;;;4.57;100.00
55032;BME280;40928;51.076;7.950;2023-12-28T01:58:42;96730.19;;;4.59;100.00
55032;BME280;40928;51.076;7.950;2023-12-28T02:01:10;96729.19;;;4.60;100.00
55032;BME280;40928;51.076;7.950;2023-12-28T02:03:36;96738.69;;;4.75;100.00
55032;BME280;40928;51.076;7.950;2023-12-28T02:06:03;96721.59;;;4.77;100.00
55032;BME280;40928;51.076;7.950;2023-12-28T02:08:30;96734.44;;;4.67;100.00
55032;BME280;40928;51.076;7.950;2023-12-28T02:10:55;96726.50;;;4.67;100.00
55032;BME280;40928;51.076;7.950;2023-12-28T02:13:21;96729.75;;;4.76;100.00
55032;BME280;40928;51.076;7.950;2023-12-28T02:15:52;96723.06;;;4.73;100.00
55032;BME280;40928;51.076;7.950;2023-12-28T02:18:26;96723.06;;;4.66;100.00
55032;BME280;40928;51.076;7.950;2023-12-28T02:20:58;96721.44;;;4.65;100.00
55032;BME280;40928;51.076;7.950;2023-12-28T02:23:26;96724.66;;;4.67;100.00
55032;BME280;40928;51.076;7.950;2023-12-28T02:25:52;96733.03;;;4.64;100.00
55032;BME280;40928;51.076;7.950;2023-12-28T02:28:17;96739.97;;;4.65;100.00
55032;BME280;40928;51.076;7.950;2023-12-28T02:30:43;96746.41;;;4.76;100.00
55032;BME280;40928;51.076;7.950;2023-12-28T02:33:36;96738.28;;;4.78;100.00
55032;BME280;40928;51.076;7.950;2023-12-28T02:36:13;96740.09;;;4.77;100.00
55032;BME280;40928;51.076;7.950;2023-12-28T02:38:41;96738.91;;;4.73;100.00
55032;BME280;40928;51.076;7.950;2023-12-28T02:41:09;96739.53;;;4.68;100.00
55032;BME280;40928;51.076;7.950;2023-12-28T02:46:11;96720.44;;;4.66;100.00
55032;BME280;40928;51.076;7.950;2023-12-28T02:48:37;96730.78;;;4.68;100.00
55032;BME280;40928;51.076;7.950;2023-12-28T02:51:02;96719.19;;;4.69;100.00
55032;BME280;40928;51.076;7.950;2023-12-28T02:53:28;96721.41;;;4.79;100.00
55032;BME280;40928;51.076;7.950;2023-12-28T02:55:53;96715.09;;;4.80;100.00
55032;BME280;40928;51.076;7.950;2023-12-28T02:58:19;96707.38;;;4.71;100.00
55032;BME280;40928;51.076;7.950;2023-12-28T03:00:45;96717.28;;;4.83;100.00
55032;BME280;40928;51.076;7.950;2023-12-28T03:03:10;96707.50;;;4.90;100.00
55032;BME280;40928;51.076;7.950;2023-12-28T03:05:36;96699.22;;;4.80;100.00
55032;BME280;40928;51.076;7.950;2023-12-28T03:08:01;96718.13;;;4.83;100.00
55032;BME280;40928;51.076;7.950;2023-12-28T03:10:27;96723.63;;;4.82;100.00
55032;BME280;40928;51.076;7.950;2023-12-28T03:12:52;96729.69;;;4.89;100.00
55032;BME280;40928;51.076;7.950;2023-12-28T03:15:18;96716.88;;;4.86;100.00
55032;BME280;40928;51.076;7.950;2023-12-28T03:17:43;96721.16;;;4.87;100.00
55032;BME280;40928;51.076;7.950;2023-12-28T03:20:09;96727.69;;;4.84;100.00
55032;BME280;40928;51.076;7.950;2023-12-28T03:22:36;96721.34;;;4.92;100.00
55032;BME280;40928;51.076;7.950;2023-12-28T03:25:02;96708.13;;;4.92;100.00
55032;BME280;40928;51.076;7.950;2023-12-28T03:27:30;96722.34;;;4.98;100.00
55032;BME280;40928;51.076;7.950;2023-12-28T03:29:55;96713.72;;;5.09;100.00
55032;BME280;40928;51.076;7.950;2023-12-28T03:32:21;96720.28;;;5.00;100.00
55032;BME280;40928;51.076;7.950;2023-12-28T03:34:48;96718.88;;;4.97;100.00
55032;BME280;40928;51.076;7.950;2023-12-28T03:37:14;96716.41;;;5.02;100.00
55032;BME280;40928;51.076;7.950;2023-12-28T03:39:39;96720.69;;;5.03;100.00
55032;BME280;40928;51.076;7.950;2023-12-28T03:42:05;96723.13;;;5.05;100.00
55032;BME280;40928;51.076;7.950;2023-12-28T03:44:30;96723.94;;;5.06;100.00
55032;BME280;40928;51.076;7.950;2023-12-28T03:46:56;96732.84;;;5.11;100.00
55032;BME280;40928;51.076;7.950;2023-12-28T03:49:22;96722.28;;;5.11;100.00
55032;BME280;40928;51.076;7.950;2023-12-28T03:51:49;96725.16;;;5.03;100.00
55032;BME280;40928;51.076;7.950;2023-12-28T03:54:18;96724.72;;;5.13;100.00
55032;BME280;40928;51.076;7.950;2023-12-28T03:56:46;96730.03;;;5.06;100.00
55032;BME280;40928;51.076;7.950;2023-12-28T03:59:11;96727.19;;;5.08;100.00
55032;BME280;40928;51.076;7.950;2023-12-28T04:01:37;96721.63;;;5.16;100.00
55032;BME280;40928;51.076;7.950;2023-12-28T04:04:02;96720.00;;;5.15;100.00
55032;BME280;40928;51.076;7.950;2023-12-28T04:06:29;96735.88;;;5.15;100.00
55032;BME280;40928;51.076;7.950;2023-12-28T04:08:56;96731.41;;;5.15;100.00
55032;BME280;40928;51.076;7.950;2023-12-28T04:11:21;96731.94;;;5.31;100.00
55032;BME280;40928;51.076;7.950;2023-12-28T04:13:47;96719.78;;;5.23;100.00
55032;BME280;40928;51.076;7.950;2023-12-28T04:16:16;96727.53;;;5.18;100.00
55032;BME280;40928;51.076;7.950;2023-12-28T04:18:44;96724.50;;;5.14;100.00
55032;BME280;40928;51.076;7.950;2023-12-28T04:21:11;96725.94;;;5.10;100.00
55032;BME280;40928;51.076;7.950;2023-12-28T04:23:39;96731.81;;;5.19;100.00
55032;BME280;40928;51.076;7.950;2023-12-28T04:26:06;96727.53;;;5.18;100.00
55032;BME280;40928;51.076;7.950;2023-12-28T04:28:31;96730.38;;;5.23;100.00
55032;BME280;40928;51.076;7.950;2023-12-28T04:31:04;96727.91;;;5.22;100.00
55032;BME280;40928;51.076;7.950;2023-12-28T04:33:29;96743.59;;;5.23;100.00
55032;BME280;40928;51.076;7.950;2023-12-28T04:35:55;96723.03;;;5.25;100.00
55032;BME280;40928;51.076;7.950;2023-12-28T04:38:22;96723.84;;;5.19;100.00
55032;BME280;40928;51.076;7.950;2023-12-28T04:40:48;96719.78;;;5.23;100.00
55032;BME280;40928;51.076;7.950;2023-12-28T04:43:13;96728.13;;;5.20;100.00
55032;BME280;40928;51.076;7.950;2023-12-28T04:45:39;96720.19;;;5.20;100.00
55032;BME280;40928;51.076;7.950;2023-12-28T04:48:04;96716.72;;;5.26;100.00
55032;BME280;40928;51.076;7.950;2023-12-28T04:50:30;96736.69;;;5.22;100.00
55032;BME280;40928;51.076;7.950;2023-12-28T04:52:55;96722.81;;;5.27;100.00
55032;BME280;40928;51.076;7.950;2023-12-28T04:55:21;96709.09;;;5.37;100.00
55032;BME280;40928;51.076;7.950;2023-12-28T04:57:46;96710.78;;;5.31;100.00
55032;BME280;40928;51.076;7.950;2023-12-28T05:00:12;96699.19;;;5.25;100.00
55032;BME280;40928;51.076;7.950;2023-12-28T05:02:38;96705.00;;;5.41;100.00
55032;BME280;40928;51.076;7.950;2023-12-28T05:05:04;96719.69;;;5.37;100.00
55032;BME280;40928;51.076;7.950;2023-12-28T05:07:30;96721.31;;;5.38;100.00
55032;BME280;40928;51.076;7.950;2023-12-28T05:09:55;96713.78;;;5.34;100.00
55032;BME280;40928;51.076;7.950;2023-12-28T05:12:21;96712.41;;;5.32;100.00
55032;BME280;40928;51.076;7.950;2023-12-28T05:14:46;96708.91;;;5.31;100.00
55032;BME280;40928;51.076;7.950;2023-12-28T05:17:12;96714.41;;;5.37;100.00
55032;BME280;40928;51.076;7.950;2023-12-28T05:19:37;96707.53;;;5.29;100.00
55032;BME280;40928;51.076;7.950;2023-12-28T05:22:03;96695.88;;;5.37;100.00
55032;BME280;40928;51.076;7.950;2023-12-28T05:24:32;96709.09;;;5.37;100.00
55032;BME280;40928;51.076;7.950;2023-12-28T05:26:58;96690.44;;;5.25;100.00
55032;BME280;40928;51.076;7.950;2023-12-28T05:29:23;96703.47;;;5.26;100.00
55032;BME280;40928;51.076;7.950;2023-12-28T05:31:48;96702.44;;;5.27;100.00
55032;BME280;40928;51.076;7.950;2023-12-28T05:34:14;96715.22;;;5.37;100.00
55032;BME280;40928;51.076;7.950;2023-12-28T05:36:40;96727.44;;;5.31;100.00
55032;BME280;40928;51.076;7.950;2023-12-28T05:39:07;96729.53;;;5.29;100.00
55032;BME280;40928;51.076;7.950;2023-12-28T05:41:34;96736.00;;;5.33;100.00
55032;BME280;40928;51.076;7.950;2023-12-28T05:44:00;96728.94;;;5.27;100.00
55032;BME280;40928;51.076;7.950;2023-12-28T05:46:25;96732.78;;;5.25;100.00
55032;BME280;40928;51.076;7.950;2023-12-28T05:48:51;96732.19;;;5.29;100.00
55032;BME280;40928;51.076;7.950;2023-12-28T05:51:16;96733.66;;;5.18;100.00
55032;BME280;40928;51.076;7.950;2023-12-28T05:53:43;96738.91;;;5.25;100.00
55032;BME280;40928;51.076;7.950;2023-12-28T05:56:09;96728.66;;;5.36;100.00
55032;BME280;40928;51.076;7.950;2023-12-28T05:58:34;96746.31;;;5.48;100.00
55032;BME280;40928;51.076;7.950;2023-12-28T06:01:00;96746.59;;;5.33;100.00
55032;BME280;40928;51.076;7.950;2023-12-28T06:03:25;96746.84;;;5.25;100.00
55032;BME280;40928;51.076;7.950;2023-12-28T06:05:54;96750.28;;;5.26;100.00
55032;BME280;40928;51.076;7.950;2023-12-28T06:08:20;96746.56;;;5.40;100.00
55032;BME280;40928;51.076;7.950;2023-12-28T06:10:46;96752.53;;;5.29;100.00
55032;BME280;40928;51.076;7.950;2023-12-28T06:13:11;96749.69;;;5.24;100.00
55032;BME280;40928;51.076;7.950;2023-12-28T06:15:37;96751.28;;;5.31;100.00
55032;BME280;40928;51.076;7.950;2023-12-28T06:18:02;96753.56;;;5.28;100.00
55032;BME280;40928;51.076;7.950;2023-12-28T06:20:29;96758.63;;;5.36;100.00
55032;BME280;40928;51.076;7.950;2023-12-28T06:22:55;96759.41;;;5.37;100.00
55032;BME280;40928;51.076;7.950;2023-12-28T06:25:21;96758.16;;;5.39;100.00
55032;BME280;40928;51.076;7.950;2023-12-28T06:27:46;96759.44;;;5.30;100.00
55032;BME280;40928;51.076;7.950;2023-12-28T06:30:12;96759.41;;;5.37;100.00
55032;BME280;40928;51.076;7.950;2023-12-28T06:32:38;96773.25;;;5.39;100.00
55032;BME280;40928;51.076;7.950;2023-12-28T06:35:04;96760.25;;;5.37;100.00
55032;BME280;40928;51.076;7.950;2023-12-28T06:37:29;96776.53;;;5.34;100.00
55032;BME280;40928;51.076;7.950;2023-12-28T06:39:55;96788.75;;;5.35;100.00
55032;BME280;40928;51.076;7.950;2023-12-28T06:42:20;96785.66;;;5.45;100.00
55032;BME280;40928;51.076;7.950;2023-12-28T06:44:46;96788.91;;;5.40;100.00
55032;BME280;40928;51.076;7.950;2023-12-28T06:47:11;96793.00;;;5.43;100.00
55032;BME280;40928;51.076;7.950;2023-12-28T06:49:37;96801.97;;;5.42;100.00
55032;BME280;40928;51.076;7.950;2023-12-28T06:52:03;96793.00;;;5.43;100.00
55032;BME280;40928;51.076;7.950;2023-12-28T06:54:28;96788.09;;;5.46;100.00
55032;BME280;40928;51.076;7.950;2023-12-28T06:56:55;96793.75;;;5.50;100.00
55032;BME280;40928;51.076;7.950;2023-12-28T06:59:21;96801.97;;;5.42;100.00
55032;BME280;40928;51.076;7.950;2023-12-28T07:01:46;96785.44;;;5.46;100.00
55032;BME280;40928;51.076;7.950;2023-12-28T07:04:13;96797.06;;;5.45;100.00
55032;BME280;40928;51.076;7.950;2023-12-28T07:06:39;96793.63;;;5.38;100.00
55032;BME280;40928;51.076;7.950;2023-12-28T07:09:05;96775.22;;;5.50;100.00
55032;BME280;40928;51.076;7.950;2023-12-28T07:11:31;96787.25;;;5.53;100.00
55032;BME280;40928;51.076;7.950;2023-12-28T07:13:56;96787.72;;;5.43;100.00
55032;BME280;40928;51.076;7.950;2023-12-28T07:16:22;96797.69;;;5.41;100.00
55032;BME280;40928;51.076;7.950;2023-12-28T07:18:48;96791.78;;;5.39;100.00
55032;BME280;40928;51.076;7.950;2023-12-28T07:21:14;96800.38;;;5.34;100.00
55032;BME280;40928;51.076;7.950;2023-12-28T07:23:40;96799.06;;;5.50;100.00
55032;BME280;40928;51.076;7.950;2023-12-28T07:26:06;96798.25;;;5.49;100.00
55032;BME280;40928;51.076;7.950;2023-12-28T07:28:32;96806.59;;;5.53;100.00
55032;BME280;40928;51.076;7.950;2023-12-28T07:30:57;96822.25;;;5.55;100.00
55032;BME280;40928;51.076;7.950;2023-12-28T07:33:23;96814.56;;;5.46;100.00
55032;BME280;40928;51.076;7.950;2023-12-28T07:35:49;96811.09;;;5.46;100.00
55032;BME280;40928;51.076;7.950;2023-12-28T07:38:15;96811.28;;;5.51;100.00
55032;BME280;40928;51.076;7.950;2023-12-28T07:40:41;96820.28;;;5.43;100.00
55032;BME280;40928;51.076;7.950;2023-12-28T07:43:07;96824.34;;;5.46;100.00
55032;BME280;40928;51.076;7.950;2023-12-28T07:45:34;96820.47;;;5.48;100.00
55032;BME280;40928;51.076;7.950;2023-12-28T07:48:04;96824.44;;;5.64;100.00
55032;BME280;40928;51.076;7.950;2023-12-28T07:50:29;96829.75;;;5.64;100.00
55032;BME280;40928;51.076;7.950;2023-12-28T07:52:55;96827.75;;;5.60;100.00
55032;BME280;40928;51.076;7.950;2023-12-28T07:55:20;96826.69;;;5.68;100.00
55032;BME280;40928;51.076;7.950;2023-12-28T07:57:46;96831.22;;;5.60;100.00
55032;BME280;40928;51.076;7.950;2023-12-28T08:00:12;96838.56;;;5.58;100.00
55032;BME280;40928;51.076;7.950;2023-12-28T08:02:38;96831.22;;;5.60;100.00
55032;BME280;40928;51.076;7.950;2023-12-28T08:05:04;96836.06;;;5.63;100.00
55032;BME280;40928;51.076;7.950;2023-12-28T08:07:30;96827.13;;;5.58;100.00
55032;BME280;40928;51.076;7.950;2023-12-28T08:09:56;96826.34;;;5.57;100.00
55032;BME280;40928;51.076;7.950;2023-12-28T08:12:21;96827.72;;;5.67;100.00
55032;BME280;40928;51.076;7.950;2023-12-28T08:14:47;96822.03;;;5.63;100.00
55032;BME280;40928;51.076;7.950;2023-12-28T08:17:12;96819.34;;;5.70;100.00
55032;BME280;40928;51.076;7.950;2023-12-28T08:19:38;96829.53;;;5.73;100.00
55032;BME280;40928;51.076;7.950;2023-12-28T08:22:04;96823.25;;;5.67;100.00
55032;BME280;40928;51.076;7.950;2023-12-28T08:24:30;96821.19;;;5.62;100.00
55032;BME280;40928;51.076;7.950;2023-12-28T08:26:55;96823.16;;;5.81;100.00
55032;BME280;40928;51.076;7.950;2023-12-28T08:29:24;96815.88;;;5.69;100.00
55032;BME280;40928;51.076;7.950;2023-12-28T08:31:50;96813.63;;;5.73;100.00
55032;BME280;40928;51.076;7.950;2023-12-28T08:34:15;96828.72;;;5.66;100.00
55032;BME280;40928;51.076;7.950;2023-12-28T08:36:41;96825.47;;;5.63;100.00
55032;BME280;40928;51.076;7.950;2023-12-28T08:39:07;96838.78;;;5.89;100.00
55032;BME280;40928;51.076;7.950;2023-12-28T08:41:33;96843.25;;;5.95;100.00
55032;BME280;40928;51.076;7.950;2023-12-28T08:43:59;96857.38;;;5.82;100.00
55032;BME280;40928;51.076;7.950;2023-12-28T08:46:25;96846.78;;;5.82;100.00
55032;BME280;40928;51.076;7.950;2023-12-28T08:48:50;96853.91;;;5.88;100.00
55032;BME280;40928;51.076;7.950;2023-12-28T08:51:16;96864.66;;;5.93;100.00
55032;BME280;40928;51.076;7.950;2023-12-28T08:53:41;96858.59;;;5.86;100.00
55032;BME280;40928;51.076;7.950;2023-12-28T08:56:18;96859.84;;;5.77;100.00
55032;BME280;40928;51.076;7.950;2023-12-28T08:58:45;96866.00;;;5.71;100.00
55032;BME280;40928;51.076;7.950;2023-12-28T09:01:16;96870.25;;;5.78;100.00
55032;BME280;40928;51.076;7.950;2023-12-28T09:03:43;96875.13;;;5.82;100.00
55032;BME280;40928;51.076;7.950;2023-12-28T09:06:09;96875.25;;;5.93;100.00
55032;BME280;40928;51.076;7.950;2023-12-28T09:08:35;96858.38;;;5.88;100.00
55032;BME280;40928;51.076;7.950;2023-12-28T09:11:00;96864.13;;;5.78;100.00
55032;BME280;40928;51.076;7.950;2023-12-28T09:13:26;96864.72;;;5.80;100.00
55032;BME280;40928;51.076;7.950;2023-12-28T09:15:52;96869.00;;;5.81;100.00
55032;BME280;40928;51.076;7.950;2023-12-28T09:18:17;96860.22;;;5.87;100.00
55032;BME280;40928;51.076;7.950;2023-12-28T09:20:43;96865.56;;;5.81;100.00
55032;BME280;40928;51.076;7.950;2023-12-28T09:23:09;96867.75;;;5.90;100.00
55032;BME280;40928;51.076;7.950;2023-12-28T09:25:36;96877.75;;;5.88;100.00
55032;BME280;40928;51.076;7.950;2023-12-28T09:28:04;96874.69;;;5.91;100.00
55032;BME280;40928;51.076;7.950;2023-12-28T09:30:30;96893.00;;;5.93;100.00
55032;BME280;40928;51.076;7.950;2023-12-28T09:32:57;96905.22;;;6.01;100.00
55032;BME280;40928;51.076;7.950;2023-12-28T09:35:22;96891.31;;;6.05;100.00
55032;BME280;40928;51.076;7.950;2023-12-28T09:37:48;96901.94;;;6.05;100.00
55032;BME280;40928;51.076;7.950;2023-12-28T09:40:14;96905.16;;;6.14;100.00
55032;BME280;40928;51.076;7.950;2023-12-28T09:42:53;96894.81;;;6.06;100.00
55032;BME280;40928;51.076;7.950;2023-12-28T09:45:26;96898.69;;;6.03;100.00
55032;BME280;40928;51.076;7.950;2023-12-28T09:47:52;96910.63;;;6.19;100.00
55032;BME280;40928;51.076;7.950;2023-12-28T09:50:18;96902.72;;;6.13;100.00
55032;BME280;40928;51.076;7.950;2023-12-28T09:52:44;96900.97;;;6.32;100.00
55032;BME280;40928;51.076;7.950;2023-12-28T09:55:10;96906.34;;;6.18;100.00
55032;BME280;40928;51.076;7.950;2023-12-28T09:57:36;96899.41;;;6.17;100.00
55032;BME280;40928;51.076;7.950;2023-12-28T10:00:03;96904.91;;;6.22;100.00
55032;BME280;40928;51.076;7.950;2023-12-28T10:02:43;96904.03;;;6.29;100.00
55032;BME280;40928;51.076;7.950;2023-12-28T10:05:13;96904.63;;;6.31;100.00
55032;BME280;40928;51.076;7.950;2023-12-28T10:07:44;96913.19;;;6.33;100.00
55032;BME280;40928;51.076;7.950;2023-12-28T10:10:10;96916.66;;;6.33;100.00
55032;BME280;40928;51.076;7.950;2023-12-28T10:12:36;96918.50;;;6.33;100.00
55032;BME280;40928;51.076;7.950;2023-12-28T10:15:06;96909.66;;;6.46;100.00
55032;BME280;40928;51.076;7.950;2023-12-28T10:17:33;96913.75;;;6.42;100.00
55032;BME280;40928;51.076;7.950;2023-12-28T10:20:03;96920.09;;;6.40;100.00
55032;BME280;40928;51.076;7.950;2023-12-28T10:22:33;96905.53;;;6.50;100.00
55032;BME280;40928;51.076;7.950;2023-12-28T10:24:59;96906.66;;;6.61;100.00
55032;BME280;40928;51.076;7.950;2023-12-28T10:27:26;96913.88;;;6.53;100.00
55032;BME280;40928;51.076;7.950;2023-12-28T10:29:55;96911.81;;;6.55;100.00
55032;BME280;40928;51.076;7.950;2023-12-28T10:32:24;96906.72;;;6.54;100.00
55032;BME280;40928;51.076;7.950;2023-12-28T10:34:53;96901.59;;;6.59;100.00
55032;BME280;40928;51.076;7.950;2023-12-28T10:37:20;96898.09;;;6.59;100.00
55032;BME280;40928;51.076;7.950;2023-12-28T10:39:48;96897.03;;;6.66;100.00
55032;BME280;40928;51.076;7.950;2023-12-28T10:42:26;96892.09;;;6.70;100.00
55032;BME280;40928;51.076;7.950;2023-12-28T10:44:55;96885.06;;;6.82;100.00
55032;BME280;40928;51.076;7.950;2023-12-28T10:47:25;96892.19;;;6.82;100.00
55032;BME280;40928;51.076;7.950;2023-12-28T10:49:53;96879.63;;;6.96;100.00
55032;BME280;40928;51.076;7.950;2023-12-28T10:52:26;96873.75;;;7.31;100.00
55032;BME280;40928;51.076;7.950;2023-12-28T10:55:16;96867.03;;;7.28;100.00
55032;BME280;40928;51.076;7.950;2023-12-28T11:00:23;96856.47;;;7.22;100.00
55032;BME280;40928;51.076;7.950;2023-12-28T11:02:52;96854.94;;;7.32;100.00
55032;BME280;40928;51.076;7.950;2023-12-28T11:05:22;96854.25;;;7.19;100.00
55032;BME280;40928;51.076;7.950;2023-12-28T11:07:50;96857.81;;;7.31;100.00
55032;BME280;40928;51.076;7.950;2023-12-28T11:10:20;96850.13;;;7.41;100.00
55032;BME280;40928;51.076;7.950;2023-12-28T11:12:52;96841.56;;;7.39;100.00
55032;BME280;40928;51.076;7.950;2023-12-28T11:15:19;96840.75;;;7.57;100.00
55032;BME280;40928;51.076;7.950;2023-12-28T11:17:44;96835.81;;;7.61;100.00
55032;BME280;40928;51.076;7.950;2023-12-28T11:20:11;96834.44;;;7.70;100.00
55032;BME280;40928;51.076;7.950;2023-12-28T11:22:37;96835.72;;;7.68;100.00
55032;BME280;40928;51.076;7.950;2023-12-28T11:25:04;96828.09;;;7.71;100.00
55032;BME280;40928;51.076;7.950;2023-12-28T11:27:34;96828.94;;;7.84;100.00
55032;BME280;40928;51.076;7.950;2023-12-28T11:30:00;96824.72;;;7.95;100.00
55032;BME280;40928;51.076;7.950;2023-12-28T11:32:26;96821.94;;;8.01;100.00
55032;BME280;40928;51.076;7.950;2023-12-28T11:34:57;96835.00;;;8.03;100.00
55032;BME280;40928;51.076;7.950;2023-12-28T11:37:23;96820.66;;;7.92;100.00
55032;BME280;40928;51.076;7.950;2023-12-28T11:39:51;96830.53;;;8.03;100.00
55032;BME280;40928;51.076;7.950;2023-12-28T11:42:20;96830.41;;;8.10;99.98
55032;BME280;40928;51.076;7.950;2023-12-28T11:44:47;96822.09;;;8.06;99.20
55032;BME280;40928;51.076;7.950;2023-12-28T11:47:25;96823.72;;;8.07;98.58
55032;BME280;40928;51.076;7.950;2023-12-28T11:49:52;96820.13;;;8.02;97.87
55032;BME280;40928;51.076;7.950;2023-12-28T11:52:38;96813.84;;;7.96;97.96
55032;BME280;40928;51.076;7.950;2023-12-28T11:55:03;96816.41;;;8.03;97.94
55032;BME280;40928;51.076;7.950;2023-12-28T11:57:30;96804.50;;;8.05;98.00
55032;BME280;40928;51.076;7.950;2023-12-28T12:00:00;96795.38;;;8.01;97.53
55032;BME280;40928;51.076;7.950;2023-12-28T12:02:26;96802.91;;;8.28;97.07
55032;BME280;40928;51.076;7.950;2023-12-28T12:04:53;96797.00;;;8.26;96.77
55032;BME280;40928;51.076;7.950;2023-12-28T12:07:19;96793.31;;;8.27;95.96
55032;BME280;40928;51.076;7.950;2023-12-28T12:09:44;96803.78;;;8.41;96.76
55032;BME280;40928;51.076;7.950;2023-12-28T12:12:10;96790.00;;;8.32;95.15
55032;BME280;40928;51.076;7.950;2023-12-28T12:14:36;96800.97;;;8.35;95.14
55032;BME280;40928;51.076;7.950;2023-12-28T12:17:03;96795.31;;;8.32;96.64
55032;BME280;40928;51.076;7.950;2023-12-28T12:19:28;96794.34;;;8.26;95.67
55032;BME280;40928;51.076;7.950;2023-12-28T12:21:55;96786.06;;;8.34;95.14
55032;BME280;40928;51.076;7.950;2023-12-28T12:24:21;96786.28;;;8.33;94.92
55032;BME280;40928;51.076;7.950;2023-12-28T12:26:47;96786.84;;;8.23;96.67
55032;BME280;40928;51.076;7.950;2023-12-28T12:29:14;96787.31;;;8.20;96.31
55032;BME280;40928;51.076;7.950;2023-12-28T12:31:40;96777.72;;;8.19;95.27
55032;BME280;40928;51.076;7.950;2023-12-28T12:34:08;96776.56;;;8.27;92.26
55032;BME280;40928;51.076;7.950;2023-12-28T12:36:37;96764.53;;;8.24;92.73
55032;BME280;40928;51.076;7.950;2023-12-28T12:39:10;96765.69;;;8.28;93.37
55032;BME280;40928;51.076;7.950;2023-12-28T12:41:36;96757.34;;;8.25;94.91
55032;BME280;40928;51.076;7.950;2023-12-28T12:44:03;96763.84;;;8.29;94.07
55032;BME280;40928;51.076;7.950;2023-12-28T12:46:30;96763.50;;;8.37;94.10
55032;BME280;40928;51.076;7.950;2023-12-28T12:49:00;96759.47;;;8.46;92.26
55032;BME280;40928;51.076;7.950;2023-12-28T12:51:26;96755.63;;;8.42;92.51
55032;BME280;40928;51.076;7.950;2023-12-28T12:54:02;96761.66;;;8.49;93.29
55032;BME280;40928;51.076;7.950;2023-12-28T12:56:30;96760.16;;;8.53;92.71
55032;BME280;40928;51.076;7.950;2023-12-28T12:58:57;96765.41;;;8.48;90.37
55032;BME280;40928;51.076;7.950;2023-12-28T13:01:23;96755.66;;;8.54;90.80
55032;BME280;40928;51.076;7.950;2023-12-28T13:03:50;96765.94;;;8.50;90.39
55032;BME280;40928;51.076;7.950;2023-12-28T13:06:15;96762.25;;;8.51;89.15